sensor_id;sensor_type;location;lat;lon;timestamp;temperature;humidity
18163;DHT22;9206;50.994;4.538;2022-12-15T00:02:55;-6.80;99.90
18163;DHT22;9206;50.994;4.538;2022-12-15T00:06:02;-6.90;99.90
18163;DHT22;9206;50.994;4.538;2022-12-15T00:09:10;-6.90;99.90
18163;DHT22;9206;50.994;4.538;2022-12-15T00:12:19;-6.90;99.90
18163;DHT22;9206;50.994;4.538;2022-12-15T00:15:23;-6.90;99.90
18163;DHT22;9206;50.994;4.538;2022-12-15T00:18:32;-6.90;99.90
18163;DHT22;9206;50.994;4.538;2022-12-15T00:21:42;-7.00;99.90
18163;DHT22;9206;50.994;4.538;2022-12-15T00:24:46;-7.00;99.90
18163;DHT22;9206;50.994;4.538;2022-12-15T00:27:55;-7.00;99.90
18163;DHT22;9206;50.994;4.538;2022-12-15T00:31:03;-7.00;99.90
18163;DHT22;9206;50.994;4.538;2022-12-15T00:34:08;-7.00;99.90
18163;DHT22;9206;50.994;4.538;2022-12-15T00:37:18;-7.00;99.90
18163;DHT22;9206;50.994;4.538;2022-12-15T00:40:26;-7.00;99.90
18163;DHT22;9206;50.994;4.538;2022-12-15T00:43:21;-7.00;99.90
18163;DHT22;9206;50.994;4.538;2022-12-15T00:46:08;-7.00;99.90
18163;DHT22;9206;50.994;4.538;2022-12-15T00:49:37;-7.00;99.90
18163;DHT22;9206;50.994;4.538;2022-12-15T00:52:44;-7.10;99.90
18163;DHT22;9206;50.994;4.538;2022-12-15T00:55:49;-7.10;99.90
18163;DHT22;9206;50.994;4.538;2022-12-15T00:58:55;-7.10;99.90
18163;DHT22;9206;50.994;4.538;2022-12-15T01:02:02;-7.10;99.90
18163;DHT22;9206;50.994;4.538;2022-12-15T01:05:13;-7.10;99.90
18163;DHT22;9206;50.994;4.538;2022-12-15T01:08:19;-7.10;99.90
18163;DHT22;9206;50.994;4.538;2022-12-15T01:11:25;-7.10;99.90
18163;DHT22;9206;50.994;4.538;2022-12-15T01:14:34;-7.10;99.90
18163;DHT22;9206;50.994;4.538;2022-12-15T01:17:44;-7.20;99.90
18163;DHT22;9206;50.994;4.538;2022-12-15T01:20:54;-7.20;99.90
18163;DHT22;9206;50.994;4.538;2022-12-15T01:23:45;-7.30;99.90
18163;DHT22;9206;50.994;4.538;2022-12-15T01:26:33;-7.30;99.90
18163;DHT22;9206;50.994;4.538;2022-12-15T01:29:26;-7.30;99.90
18163;DHT22;9206;50.994;4.538;2022-12-15T01:32:21;-7.30;99.90
18163;DHT22;9206;50.994;4.538;2022-12-15T01:35:09;-7.40;99.90
18163;DHT22;9206;50.994;4.538;2022-12-15T01:38:03;-7.30;99.90
18163;DHT22;9206;50.994;4.538;2022-12-15T01:40:53;-7.30;99.90
18163;DHT22;9206;50.994;4.538;2022-12-15T01:43:41;-7.40;99.90
18163;DHT22;9206;50.994;4.538;2022-12-15T01:46:28;-7.40;99.90
18163;DHT22;9206;50.994;4.538;2022-12-15T01:49:21;-7.50;99.90
18163;DHT22;9206;50.994;4.538;2022-12-15T01:52:10;-7.50;99.90
18163;DHT22;9206;50.994;4.538;2022-12-15T01:55:00;-7.50;99.90
18163;DHT22;9206;50.994;4.538;2022-12-15T01:57:53;-7.50;99.90
18163;DHT22;9206;50.994;4.538;2022-12-15T02:00:42;-7.50;99.90
18163;DHT22;9206;50.994;4.538;2022-12-15T02:03:37;-7.50;99.90
18163;DHT22;9206;50.994;4.538;2022-12-15T02:06:28;-7.50;99.90
18163;DHT22;9206;50.994;4.538;2022-12-15T02:09:18;-7.50;99.90
18163;DHT22;9206;50.994;4.538;2022-12-15T02:12:12;-7.50;99.90
18163;DHT22;9206;50.994;4.538;2022-12-15T02:15:16;-7.50;99.90
18163;DHT22;9206;50.994;4.538;2022-12-15T02:18:11;-7.50;99.90
18163;DHT22;9206;50.994;4.538;2022-12-15T02:21:03;-7.50;99.90
18163;DHT22;9206;50.994;4.538;2022-12-15T02:27:23;-7.50;99.90
18163;DHT22;9206;50.994;4.538;2022-12-15T02:30:23;-7.50;99.90
18163;DHT22;9206;50.994;4.538;2022-12-15T02:33:20;-7.50;99.90
18163;DHT22;9206;50.994;4.538;2022-12-15T02:36:22;-7.50;99.90
18163;DHT22;9206;50.994;4.538;2022-12-15T02:39:13;-7.60;99.90
18163;DHT22;9206;50.994;4.538;2022-12-15T02:42:00;-7.60;99.90
18163;DHT22;9206;50.994;4.538;2022-12-15T02:44:51;-7.50;99.90
18163;DHT22;9206;50.994;4.538;2022-12-15T02:47:48;-7.60;99.90
18163;DHT22;9206;50.994;4.538;2022-12-15T02:50:51;-7.60;99.90
18163;DHT22;9206;50.994;4.538;2022-12-15T02:53:59;-7.60;99.90
18163;DHT22;9206;50.994;4.538;2022-12-15T02:57:00;-7.60;99.90
18163;DHT22;9206;50.994;4.538;2022-12-15T02:59:55;-7.70;99.90
18163;DHT22;9206;50.994;4.538;2022-12-15T03:02:49;-7.70;99.90
18163;DHT22;9206;50.994;4.538;2022-12-15T03:05:40;-7.70;99.90
18163;DHT22;9206;50.994;4.538;2022-12-15T03:08:29;-7.80;99.90
18163;DHT22;9206;50.994;4.538;2022-12-15T03:11:16;-7.80;99.90
18163;DHT22;9206;50.994;4.538;2022-12-15T03:14:10;-7.90;99.90
18163;DHT22;9206;50.994;4.538;2022-12-15T03:16:57;-7.90;99.90
18163;DHT22;9206;50.994;4.538;2022-12-15T03:19:47;-7.90;99.90
18163;DHT22;9206;50.994;4.538;2022-12-15T03:22:38;-7.90;99.90
18163;DHT22;9206;50.994;4.538;2022-12-15T03:25:26;-7.90;99.90
18163;DHT22;9206;50.994;4.538;2022-12-15T03:28:14;-7.90;99.90
18163;DHT22;9206;50.994;4.538;2022-12-15T03:31:02;-7.90;99.90
18163;DHT22;9206;50.994;4.538;2022-12-15T03:33:53;-7.90;99.90
18163;DHT22;9206;50.994;4.538;2022-12-15T03:36:43;-8.00;99.90
18163;DHT22;9206;50.994;4.538;2022-12-15T03:39:33;-8.00;99.90
18163;DHT22;9206;50.994;4.538;2022-12-15T03:42:21;-7.90;99.90
18163;DHT22;9206;50.994;4.538;2022-12-15T03:45:27;-7.90;99.90
18163;DHT22;9206;50.994;4.538;2022-12-15T03:48:16;-7.90;99.90
18163;DHT22;9206;50.994;4.538;2022-12-15T03:51:07;-7.90;99.90
18163;DHT22;9206;50.994;4.538;2022-12-15T03:53:57;-8.00;99.90
18163;DHT22;9206;50.994;4.538;2022-12-15T03:56:44;-8.00;99.90
18163;DHT22;9206;50.994;4.538;2022-12-15T03:59:34;-8.00;99.90
18163;DHT22;9206;50.994;4.538;2022-12-15T04:02:22;-8.00;99.90
18163;DHT22;9206;50.994;4.538;2022-12-15T04:05:14;-8.00;99.90
18163;DHT22;9206;50.994;4.538;2022-12-15T04:08:02;-8.00;99.90
18163;DHT22;9206;50.994;4.538;2022-12-15T04:10:52;-8.00;99.90
18163;DHT22;9206;50.994;4.538;2022-12-15T04:13:40;-8.00;99.90
18163;DHT22;9206;50.994;4.538;2022-12-15T04:16:29;-8.00;99.90
18163;DHT22;9206;50.994;4.538;2022-12-15T04:19:16;-8.00;99.90
18163;DHT22;9206;50.994;4.538;2022-12-15T04:22:24;-8.10;99.90
18163;DHT22;9206;50.994;4.538;2022-12-15T04:25:14;-8.20;99.90
18163;DHT22;9206;50.994;4.538;2022-12-15T04:28:21;-8.20;99.90
18163;DHT22;9206;50.994;4.538;2022-12-15T04:31:30;-8.20;99.90
18163;DHT22;9206;50.994;4.538;2022-12-15T04:34:38;-8.10;99.90
18163;DHT22;9206;50.994;4.538;2022-12-15T04:37:43;-8.20;99.90
18163;DHT22;9206;50.994;4.538;2022-12-15T04:40:54;-8.20;99.90
18163;DHT22;9206;50.994;4.538;2022-12-15T04:44:02;-8.30;99.90
18163;DHT22;9206;50.994;4.538;2022-12-15T04:47:10;-8.20;99.90
18163;DHT22;9206;50.994;4.538;2022-12-15T04:50:18;-8.30;99.90
18163;DHT22;9206;50.994;4.538;2022-12-15T04:53:22;-8.30;99.90
18163;DHT22;9206;50.994;4.538;2022-12-15T04:56:28;-8.20;99.90
18163;DHT22;9206;50.994;4.538;2022-12-15T04:59:35;-8.20;99.90
18163;DHT22;9206;50.994;4.538;2022-12-15T05:02:42;-8.30;99.90
18163;DHT22;9206;50.994;4.538;2022-12-15T05:05:50;-8.30;99.90
18163;DHT22;9206;50.994;4.538;2022-12-15T05:08:55;-8.30;99.90
18163;DHT22;9206;50.994;4.538;2022-12-15T05:12:01;-8.30;99.90
18163;DHT22;9206;50.994;4.538;2022-12-15T05:15:10;-8.40;99.90
18163;DHT22;9206;50.994;4.538;2022-12-15T05:18:15;-8.40;99.90
18163;DHT22;9206;50.994;4.538;2022-12-15T05:21:20;-8.40;99.90
18163;DHT22;9206;50.994;4.538;2022-12-15T05:24:47;-8.30;99.90
18163;DHT22;9206;50.994;4.538;2022-12-15T05:27:51;-8.30;99.90
18163;DHT22;9206;50.994;4.538;2022-12-15T05:31:00;-8.30;99.90
18163;DHT22;9206;50.994;4.538;2022-12-15T05:34:07;-8.40;99.90
18163;DHT22;9206;50.994;4.538;2022-12-15T05:36:59;-8.40;99.90
18163;DHT22;9206;50.994;4.538;2022-12-15T05:39:47;-8.30;99.90
18163;DHT22;9206;50.994;4.538;2022-12-15T05:42:35;-8.30;99.90
18163;DHT22;9206;50.994;4.538;2022-12-15T05:45:25;-8.30;99.90
18163;DHT22;9206;50.994;4.538;2022-12-15T05:48:16;-8.30;99.90
18163;DHT22;9206;50.994;4.538;2022-12-15T05:51:07;-8.20;99.90
18163;DHT22;9206;50.994;4.538;2022-12-15T05:54:04;-8.20;99.90
18163;DHT22;9206;50.994;4.538;2022-12-15T05:56:54;-8.30;99.90
18163;DHT22;9206;50.994;4.538;2022-12-15T05:59:45;-8.30;99.90
18163;DHT22;9206;50.994;4.538;2022-12-15T06:02:34;-8.30;99.90
18163;DHT22;9206;50.994;4.538;2022-12-15T06:05:38;-8.30;99.90
18163;DHT22;9206;50.994;4.538;2022-12-15T06:08:35;-8.30;99.90
18163;DHT22;9206;50.994;4.538;2022-12-15T06:11:23;-8.30;99.90
18163;DHT22;9206;50.994;4.538;2022-12-15T06:14:16;-8.40;99.90
18163;DHT22;9206;50.994;4.538;2022-12-15T06:17:04;-8.40;99.90
18163;DHT22;9206;50.994;4.538;2022-12-15T06:19:53;-8.40;99.90
18163;DHT22;9206;50.994;4.538;2022-12-15T06:22:44;-8.30;99.90
18163;DHT22;9206;50.994;4.538;2022-12-15T06:25:31;-8.30;99.90
18163;DHT22;9206;50.994;4.538;2022-12-15T06:28:24;-8.30;99.90
18163;DHT22;9206;50.994;4.538;2022-12-15T06:31:13;-8.40;99.90
18163;DHT22;9206;50.994;4.538;2022-12-15T06:34:05;-8.40;99.90
18163;DHT22;9206;50.994;4.538;2022-12-15T06:36:54;-8.40;99.90
18163;DHT22;9206;50.994;4.538;2022-12-15T06:39:43;-8.30;99.90
18163;DHT22;9206;50.994;4.538;2022-12-15T06:42:33;-8.30;99.90
18163;DHT22;9206;50.994;4.538;2022-12-15T06:45:20;-8.30;99.90
18163;DHT22;9206;50.994;4.538;2022-12-15T06:48:09;-8.20;99.90
18163;DHT22;9206;50.994;4.538;2022-12-15T06:51:02;-8.30;99.90
18163;DHT22;9206;50.994;4.538;2022-12-15T06:53:50;-8.30;99.90
18163;DHT22;9206;50.994;4.538;2022-12-15T06:56:40;-8.40;99.90
18163;DHT22;9206;50.994;4.538;2022-12-15T06:59:28;-8.40;99.90
18163;DHT22;9206;50.994;4.538;2022-12-15T07:02:16;-8.30;99.90
18163;DHT22;9206;50.994;4.538;2022-12-15T07:05:04;-8.30;99.90
18163;DHT22;9206;50.994;4.538;2022-12-15T07:07:51;-8.30;99.90
18163;DHT22;9206;50.994;4.538;2022-12-15T07:10:40;-8.30;99.90
18163;DHT22;9206;50.994;4.538;2022-12-15T07:13:30;-8.30;99.90
18163;DHT22;9206;50.994;4.538;2022-12-15T07:16:19;-8.30;99.90
18163;DHT22;9206;50.994;4.538;2022-12-15T07:19:09;-8.30;99.90
18163;DHT22;9206;50.994;4.538;2022-12-15T07:22:01;-8.30;99.90
18163;DHT22;9206;50.994;4.538;2022-12-15T07:24:48;-8.20;99.90
18163;DHT22;9206;50.994;4.538;2022-12-15T07:27:35;-8.20;99.90
18163;DHT22;9206;50.994;4.538;2022-12-15T07:30:25;-8.10;99.90
18163;DHT22;9206;50.994;4.538;2022-12-15T07:33:13;-8.10;99.90
18163;DHT22;9206;50.994;4.538;2022-12-15T07:36:03;-8.10;99.90
18163;DHT22;9206;50.994;4.538;2022-12-15T07:38:56;-8.10;99.90
18163;DHT22;9206;50.994;4.538;2022-12-15T07:41:43;-8.10;99.90
18163;DHT22;9206;50.994;4.538;2022-12-15T07:44:32;-8.10;99.90
18163;DHT22;9206;50.994;4.538;2022-12-15T07:47:25;-8.00;99.90
18163;DHT22;9206;50.994;4.538;2022-12-15T07:50:14;-8.00;99.90
18163;DHT22;9206;50.994;4.538;2022-12-15T07:53:02;-8.00;99.90
18163;DHT22;9206;50.994;4.538;2022-12-15T07:55:53;-8.00;99.90
18163;DHT22;9206;50.994;4.538;2022-12-15T07:58:41;-7.90;99.90
18163;DHT22;9206;50.994;4.538;2022-12-15T08:01:29;-7.90;99.90
18163;DHT22;9206;50.994;4.538;2022-12-15T08:04:17;-7.90;99.90
18163;DHT22;9206;50.994;4.538;2022-12-15T08:07:06;-7.90;99.90
18163;DHT22;9206;50.994;4.538;2022-12-15T08:09:54;-7.90;99.90
18163;DHT22;9206;50.994;4.538;2022-12-15T08:12:43;-7.90;99.90
18163;DHT22;9206;50.994;4.538;2022-12-15T08:15:33;-7.90;99.90
18163;DHT22;9206;50.994;4.538;2022-12-15T08:18:23;-7.80;99.90
18163;DHT22;9206;50.994;4.538;2022-12-15T08:21:13;-7.70;99.90
18163;DHT22;9206;50.994;4.538;2022-12-15T08:24:02;-7.60;99.90
18163;DHT22;9206;50.994;4.538;2022-12-15T08:26:50;-7.50;99.90
18163;DHT22;9206;50.994;4.538;2022-12-15T08:29:38;-7.40;99.90
18163;DHT22;9206;50.994;4.538;2022-12-15T08:32:26;-7.30;99.90
18163;DHT22;9206;50.994;4.538;2022-12-15T08:35:14;-7.20;99.90
18163;DHT22;9206;50.994;4.538;2022-12-15T08:38:03;-7.00;99.90
18163;DHT22;9206;50.994;4.538;2022-12-15T08:40:50;-6.90;99.90
18163;DHT22;9206;50.994;4.538;2022-12-15T08:43:38;-6.70;99.90
18163;DHT22;9206;50.994;4.538;2022-12-15T08:46:29;-6.50;99.90
18163;DHT22;9206;50.994;4.538;2022-12-15T08:49:19;-6.40;99.90
18163;DHT22;9206;50.994;4.538;2022-12-15T08:52:06;-6.20;99.90
18163;DHT22;9206;50.994;4.538;2022-12-15T08:54:55;-6.00;99.90
18163;DHT22;9206;50.994;4.538;2022-12-15T08:57:42;-5.80;99.90
18163;DHT22;9206;50.994;4.538;2022-12-15T09:00:29;-5.70;99.90
18163;DHT22;9206;50.994;4.538;2022-12-15T09:03:17;-5.60;99.90
18163;DHT22;9206;50.994;4.538;2022-12-15T09:06:07;-4.90;99.90
18163;DHT22;9206;50.994;4.538;2022-12-15T09:08:58;-3.00;99.90
18163;DHT22;9206;50.994;4.538;2022-12-15T09:11:48;-2.00;99.90
18163;DHT22;9206;50.994;4.538;2022-12-15T09:14:35;-1.80;99.90
18163;DHT22;9206;50.994;4.538;2022-12-15T09:17:22;-1.40;99.90
18163;DHT22;9206;50.994;4.538;2022-12-15T09:20:10;0.40;99.90
18163;DHT22;9206;50.994;4.538;2022-12-15T09:22:57;2.50;99.90
18163;DHT22;9206;50.994;4.538;2022-12-15T09:25:44;4.60;99.90
18163;DHT22;9206;50.994;4.538;2022-12-15T09:28:34;6.10;99.90
18163;DHT22;9206;50.994;4.538;2022-12-15T09:31:23;6.70;99.90
18163;DHT22;9206;50.994;4.538;2022-12-15T09:34:14;7.50;99.90
18163;DHT22;9206;50.994;4.538;2022-12-15T09:37:02;8.30;99.90
18163;DHT22;9206;50.994;4.538;2022-12-15T09:39:50;9.00;99.90
18163;DHT22;9206;50.994;4.538;2022-12-15T09:42:45;10.20;99.90
18163;DHT22;9206;50.994;4.538;2022-12-15T09:45:41;11.20;99.90
18163;DHT22;9206;50.994;4.538;2022-12-15T09:48:39;11.80;99.90
18163;DHT22;9206;50.994;4.538;2022-12-15T09:51:32;12.10;99.90
18163;DHT22;9206;50.994;4.538;2022-12-15T09:54:22;12.30;99.90
18163;DHT22;9206;50.994;4.538;2022-12-15T09:57:18;12.40;99.90
18163;DHT22;9206;50.994;4.538;2022-12-15T10:00:16;12.90;99.90
18163;DHT22;9206;50.994;4.538;2022-12-15T10:03:37;13.40;99.90
18163;DHT22;9206;50.994;4.538;2022-12-15T10:06:31;13.70;99.90
18163;DHT22;9206;50.994;4.538;2022-12-15T10:09:24;14.20;99.90
18163;DHT22;9206;50.994;4.538;2022-12-15T10:12:22;15.00;99.90
18163;DHT22;9206;50.994;4.538;2022-12-15T10:15:20;15.10;99.90
18163;DHT22;9206;50.994;4.538;2022-12-15T10:18:17;15.60;98.40
18163;DHT22;9206;50.994;4.538;2022-12-15T10:21:10;16.00;98.20
18163;DHT22;9206;50.994;4.538;2022-12-15T10:24:11;16.60;97.50
18163;DHT22;9206;50.994;4.538;2022-12-15T10:27:07;17.40;96.60
18163;DHT22;9206;50.994;4.538;2022-12-15T10:30:02;18.20;94.90
18163;DHT22;9206;50.994;4.538;2022-12-15T10:32:55;17.40;95.10
18163;DHT22;9206;50.994;4.538;2022-12-15T10:35:45;17.40;94.80
18163;DHT22;9206;50.994;4.538;2022-12-15T10:38:35;18.20;94.70
18163;DHT22;9206;50.994;4.538;2022-12-15T10:41:23;18.20;94.20
18163;DHT22;9206;50.994;4.538;2022-12-15T10:44:24;17.90;94.00
18163;DHT22;9206;50.994;4.538;2022-12-15T10:47:17;17.90;93.30
18163;DHT22;9206;50.994;4.538;2022-12-15T10:50:22;17.40;93.80
18163;DHT22;9206;50.994;4.538;2022-12-15T10:53:32;17.30;93.90
18163;DHT22;9206;50.994;4.538;2022-12-15T10:56:23;18.00;93.20
18163;DHT22;9206;50.994;4.538;2022-12-15T10:59:22;18.10;92.10
18163;DHT22;9206;50.994;4.538;2022-12-15T11:02:27;17.40;91.60
18163;DHT22;9206;50.994;4.538;2022-12-15T11:05:19;17.60;92.40
18163;DHT22;9206;50.994;4.538;2022-12-15T11:08:14;18.40;92.10
18163;DHT22;9206;50.994;4.538;2022-12-15T11:11:02;18.70;91.80
18163;DHT22;9206;50.994;4.538;2022-12-15T11:14:13;19.00;90.90
18163;DHT22;9206;50.994;4.538;2022-12-15T11:17:06;18.60;91.10
18163;DHT22;9206;50.994;4.538;2022-12-15T11:19:57;18.40;90.90
18163;DHT22;9206;50.994;4.538;2022-12-15T11:22:50;18.70;90.10
18163;DHT22;9206;50.994;4.538;2022-12-15T11:25:42;18.70;90.40
18163;DHT22;9206;50.994;4.538;2022-12-15T11:28:35;18.60;88.70
18163;DHT22;9206;50.994;4.538;2022-12-15T11:31:31;18.80;89.90
18163;DHT22;9206;50.994;4.538;2022-12-15T11:34:22;19.20;88.90
18163;DHT22;9206;50.994;4.538;2022-12-15T11:37:41;18.80;90.80
18163;DHT22;9206;50.994;4.538;2022-12-15T11:40:33;19.40;89.00
18163;DHT22;9206;50.994;4.538;2022-12-15T11:43:38;19.80;87.40
18163;DHT22;9206;50.994;4.538;2022-12-15T11:46:37;20.30;86.60
18163;DHT22;9206;50.994;4.538;2022-12-15T11:49:47;20.30;85.80
18163;DHT22;9206;50.994;4.538;2022-12-15T11:52:52;20.30;85.90
18163;DHT22;9206;50.994;4.538;2022-12-15T11:55:48;20.80;84.40
18163;DHT22;9206;50.994;4.538;2022-12-15T11:58:52;20.60;84.40
18163;DHT22;9206;50.994;4.538;2022-12-15T12:02:01;20.60;83.60
18163;DHT22;9206;50.994;4.538;2022-12-15T12:05:09;21.30;81.70
18163;DHT22;9206;50.994;4.538;2022-12-15T12:08:22;21.70;81.40
18163;DHT22;9206;50.994;4.538;2022-12-15T12:11:15;20.70;83.40
18163;DHT22;9206;50.994;4.538;2022-12-15T12:14:19;20.40;84.20
18163;DHT22;9206;50.994;4.538;2022-12-15T12:17:15;21.10;83.30
18163;DHT22;9206;50.994;4.538;2022-12-15T12:20:13;20.70;82.60
18163;DHT22;9206;50.994;4.538;2022-12-15T12:23:04;21.50;78.30
18163;DHT22;9206;50.994;4.538;2022-12-15T12:26:04;22.10;78.20
18163;DHT22;9206;50.994;4.538;2022-12-15T12:29:02;22.40;76.90
18163;DHT22;9206;50.994;4.538;2022-12-15T12:32:02;21.90;76.60
18163;DHT22;9206;50.994;4.538;2022-12-15T12:35:00;21.00;76.10
18163;DHT22;9206;50.994;4.538;2022-12-15T12:37:51;20.80;77.70
18163;DHT22;9206;50.994;4.538;2022-12-15T12:40:51;20.60;76.80
18163;DHT22;9206;50.994;4.538;2022-12-15T12:43:42;20.80;77.50
18163;DHT22;9206;50.994;4.538;2022-12-15T12:46:34;20.90;76.10
18163;DHT22;9206;50.994;4.538;2022-12-15T12:49:26;20.40;77.10
18163;DHT22;9206;50.994;4.538;2022-12-15T12:52:25;20.10;77.10
18163;DHT22;9206;50.994;4.538;2022-12-15T12:55:35;20.20;75.70
18163;DHT22;9206;50.994;4.538;2022-12-15T12:58:36;20.10;77.50
18163;DHT22;9206;50.994;4.538;2022-12-15T13:01:30;19.80;77.50
18163;DHT22;9206;50.994;4.538;2022-12-15T13:04:41;18.80;78.40
18163;DHT22;9206;50.994;4.538;2022-12-15T13:07:33;19.30;77.30
18163;DHT22;9206;50.994;4.538;2022-12-15T13:10:25;19.50;76.80
18163;DHT22;9206;50.994;4.538;2022-12-15T13:13:37;19.20;78.20
18163;DHT22;9206;50.994;4.538;2022-12-15T13:16:30;18.80;76.50
18163;DHT22;9206;50.994;4.538;2022-12-15T13:22:52;19.20;78.70
18163;DHT22;9206;50.994;4.538;2022-12-15T13:25:42;19.40;77.70
18163;DHT22;9206;50.994;4.538;2022-12-15T13:28:41;19.50;77.50
18163;DHT22;9206;50.994;4.538;2022-12-15T13:31:40;19.40;79.50
18163;DHT22;9206;50.994;4.538;2022-12-15T13:34:36;19.50;79.00
18163;DHT22;9206;50.994;4.538;2022-12-15T13:37:44;19.90;78.30
18163;DHT22;9206;50.994;4.538;2022-12-15T13:40:52;19.70;78.90
18163;DHT22;9206;50.994;4.538;2022-12-15T13:43:45;19.30;79.80
18163;DHT22;9206;50.994;4.538;2022-12-15T13:46:45;18.90;80.20
18163;DHT22;9206;50.994;4.538;2022-12-15T13:49:37;19.30;79.40
18163;DHT22;9206;50.994;4.538;2022-12-15T13:52:34;19.20;79.50
18163;DHT22;9206;50.994;4.538;2022-12-15T13:55:25;19.20;79.90
18163;DHT22;9206;50.994;4.538;2022-12-15T13:58:15;18.50;80.60
18163;DHT22;9206;50.994;4.538;2022-12-15T14:01:18;18.30;80.30
18163;DHT22;9206;50.994;4.538;2022-12-15T14:04:09;18.40;79.30
18163;DHT22;9206;50.994;4.538;2022-12-15T14:07:01;18.20;79.10
18163;DHT22;9206;50.994;4.538;2022-12-15T14:09:48;17.90;78.90
18163;DHT22;9206;50.994;4.538;2022-12-15T14:12:38;17.60;79.40
18163;DHT22;9206;50.994;4.538;2022-12-15T14:15:29;17.20;80.70
18163;DHT22;9206;50.994;4.538;2022-12-15T14:18:26;16.90;80.50
18163;DHT22;9206;50.994;4.538;2022-12-15T14:21:19;16.60;81.00
18163;DHT22;9206;50.994;4.538;2022-12-15T14:24:25;16.30;81.50
18163;DHT22;9206;50.994;4.538;2022-12-15T14:27:21;16.00;82.10
18163;DHT22;9206;50.994;4.538;2022-12-15T14:30:18;15.80;82.00
18163;DHT22;9206;50.994;4.538;2022-12-15T14:33:12;15.30;82.80
18163;DHT22;9206;50.994;4.538;2022-12-15T14:36:04;14.90;83.40
18163;DHT22;9206;50.994;4.538;2022-12-15T14:38:54;14.50;86.60
18163;DHT22;9206;50.994;4.538;2022-12-15T14:41:46;14.20;86.90
18163;DHT22;9206;50.994;4.538;2022-12-15T14:44:37;13.60;87.90
18163;DHT22;9206;50.994;4.538;2022-12-15T14:47:27;12.80;89.80
18163;DHT22;9206;50.994;4.538;2022-12-15T14:50:17;12.60;88.80
18163;DHT22;9206;50.994;4.538;2022-12-15T14:53:10;12.30;89.90
18163;DHT22;9206;50.994;4.538;2022-12-15T14:56:12;11.70;91.20
18163;DHT22;9206;50.994;4.538;2022-12-15T14:59:01;11.20;92.10
18163;DHT22;9206;50.994;4.538;2022-12-15T15:01:51;10.60;93.30
18163;DHT22;9206;50.994;4.538;2022-12-15T15:04:39;10.10;94.10
18163;DHT22;9206;50.994;4.538;2022-12-15T15:07:28;9.70;94.50
18163;DHT22;9206;50.994;4.538;2022-12-15T15:10:22;9.10;96.30
18163;DHT22;9206;50.994;4.538;2022-12-15T15:13:16;7.90;98.00
18163;DHT22;9206;50.994;4.538;2022-12-15T15:16:06;6.60;99.90
18163;DHT22;9206;50.994;4.538;2022-12-15T15:19:00;5.50;99.90
18163;DHT22;9206;50.994;4.538;2022-12-15T15:21:49;4.60;99.90
18163;DHT22;9206;50.994;4.538;2022-12-15T15:24:37;3.90;99.90
18163;DHT22;9206;50.994;4.538;2022-12-15T15:27:30;3.40;99.90
18163;DHT22;9206;50.994;4.538;2022-12-15T15:30:21;2.90;99.90
18163;DHT22;9206;50.994;4.538;2022-12-15T15:33:09;2.50;99.90
18163;DHT22;9206;50.994;4.538;2022-12-15T15:36:00;2.30;99.90
18163;DHT22;9206;50.994;4.538;2022-12-15T15:38:47;2.00;99.90
18163;DHT22;9206;50.994;4.538;2022-12-15T15:41:36;1.70;99.90
18163;DHT22;9206;50.994;4.538;2022-12-15T15:44:24;1.50;99.90
18163;DHT22;9206;50.994;4.538;2022-12-15T15:47:16;1.30;99.90
18163;DHT22;9206;50.994;4.538;2022-12-15T15:50:11;1.10;99.90
18163;DHT22;9206;50.994;4.538;2022-12-15T15:53:00;1.00;99.90
18163;DHT22;9206;50.994;4.538;2022-12-15T15:55:54;0.80;99.90
18163;DHT22;9206;50.994;4.538;2022-12-15T15:58:46;0.70;99.90
18163;DHT22;9206;50.994;4.538;2022-12-15T16:01:33;0.50;99.90
18163;DHT22;9206;50.994;4.538;2022-12-15T16:04:26;0.40;99.90
18163;DHT22;9206;50.994;4.538;2022-12-15T16:07:18;0.30;99.90
18163;DHT22;9206;50.994;4.538;2022-12-15T16:10:17;0.20;99.90
18163;DHT22;9206;50.994;4.538;2022-12-15T16:13:11;0.10;99.90
18163;DHT22;9206;50.994;4.538;2022-12-15T16:16:03;-0.10;99.90
18163;DHT22;9206;50.994;4.538;2022-12-15T16:18:51;-0.20;99.90
18163;DHT22;9206;50.994;4.538;2022-12-15T16:21:41;-0.20;99.90
18163;DHT22;9206;50.994;4.538;2022-12-15T16:24:29;-0.30;99.90
18163;DHT22;9206;50.994;4.538;2022-12-15T16:27:18;-0.30;99.90
18163;DHT22;9206;50.994;4.538;2022-12-15T16:30:15;-0.40;99.90
18163;DHT22;9206;50.994;4.538;2022-12-15T16:33:05;-0.40;99.90
18163;DHT22;9206;50.994;4.538;2022-12-15T16:35:53;-0.50;99.90
18163;DHT22;9206;50.994;4.538;2022-12-15T16:38:42;-0.60;99.90
18163;DHT22;9206;50.994;4.538;2022-12-15T16:41:32;-0.70;99.90
18163;DHT22;9206;50.994;4.538;2022-12-15T16:44:27;-0.70;99.90
18163;DHT22;9206;50.994;4.538;2022-12-15T16:47:15;-0.80;99.90
18163;DHT22;9206;50.994;4.538;2022-12-15T16:50:11;-0.80;99.90
18163;DHT22;9206;50.994;4.538;2022-12-15T16:52:59;-0.90;99.90
18163;DHT22;9206;50.994;4.538;2022-12-15T16:55:52;-0.90;99.90
18163;DHT22;9206;50.994;4.538;2022-12-15T16:58:57;-1.00;99.90
18163;DHT22;9206;50.994;4.538;2022-12-15T17:01:44;-1.00;99.90
18163;DHT22;9206;50.994;4.538;2022-12-15T17:04:33;-1.10;99.90
18163;DHT22;9206;50.994;4.538;2022-12-15T17:07:25;-1.10;99.90
18163;DHT22;9206;50.994;4.538;2022-12-15T17:10:16;-1.20;99.90
18163;DHT22;9206;50.994;4.538;2022-12-15T17:13:10;-1.20;99.90
18163;DHT22;9206;50.994;4.538;2022-12-15T17:16:02;-1.20;99.90
18163;DHT22;9206;50.994;4.538;2022-12-15T17:18:55;-1.20;99.90
18163;DHT22;9206;50.994;4.538;2022-12-15T17:22:02;-1.30;99.90
18163;DHT22;9206;50.994;4.538;2022-12-15T17:24:51;-1.30;99.90
18163;DHT22;9206;50.994;4.538;2022-12-15T17:27:42;-1.30;99.90
18163;DHT22;9206;50.994;4.538;2022-12-15T17:30:35;-1.30;99.90
18163;DHT22;9206;50.994;4.538;2022-12-15T17:33:24;-1.40;99.90
18163;DHT22;9206;50.994;4.538;2022-12-15T17:36:15;-1.40;99.90
18163;DHT22;9206;50.994;4.538;2022-12-15T17:39:08;-1.40;99.90
18163;DHT22;9206;50.994;4.538;2022-12-15T17:42:00;-1.40;99.90
18163;DHT22;9206;50.994;4.538;2022-12-15T17:44:50;-1.50;99.90
18163;DHT22;9206;50.994;4.538;2022-12-15T17:47:38;-1.50;99.90
18163;DHT22;9206;50.994;4.538;2022-12-15T17:50:32;-1.60;99.90
18163;DHT22;9206;50.994;4.538;2022-12-15T17:53:21;-1.70;99.90
18163;DHT22;9206;50.994;4.538;2022-12-15T17:56:10;-1.70;99.90
18163;DHT22;9206;50.994;4.538;2022-12-15T17:59:12;-1.70;99.90
18163;DHT22;9206;50.994;4.538;2022-12-15T18:02:00;-1.70;99.90
18163;DHT22;9206;50.994;4.538;2022-12-15T18:04:49;-1.70;99.90
18163;DHT22;9206;50.994;4.538;2022-12-15T18:07:37;-1.80;99.90
18163;DHT22;9206;50.994;4.538;2022-12-15T18:10:30;-1.90;99.90
18163;DHT22;9206;50.994;4.538;2022-12-15T18:13:22;-2.00;99.90
18163;DHT22;9206;50.994;4.538;2022-12-15T18:16:14;-2.00;99.90
18163;DHT22;9206;50.994;4.538;2022-12-15T18:19:02;-2.10;99.90
18163;DHT22;9206;50.994;4.538;2022-12-15T18:21:50;-2.10;99.90
18163;DHT22;9206;50.994;4.538;2022-12-15T18:24:43;-2.10;99.90
18163;DHT22;9206;50.994;4.538;2022-12-15T18:27:37;-2.20;99.90
18163;DHT22;9206;50.994;4.538;2022-12-15T18:30:26;-2.30;99.90
18163;DHT22;9206;50.994;4.538;2022-12-15T18:33:15;-2.30;99.90
18163;DHT22;9206;50.994;4.538;2022-12-15T18:36:03;-2.30;99.90
18163;DHT22;9206;50.994;4.538;2022-12-15T18:38:50;-2.30;99.90
18163;DHT22;9206;50.994;4.538;2022-12-15T18:41:38;-2.40;99.90
18163;DHT22;9206;50.994;4.538;2022-12-15T18:44:27;-2.50;99.90
18163;DHT22;9206;50.994;4.538;2022-12-15T18:47:17;-2.50;99.90
18163;DHT22;9206;50.994;4.538;2022-12-15T18:50:12;-2.50;99.90